createdAt,value
2019-06-27T00:04:04.648Z,8.8
2019-06-27T00:05:04.744Z,8.8
2019-06-27T00:12:05.053Z,8
2019-06-27T00:13:05.198Z,9.6
2019-06-27T00:14:05.283Z,10.1
2019-06-27T00:15:05.335Z,9
2019-06-27T00:16:05.411Z,10.3
2019-06-27T00:17:05.389Z,9.7
2019-06-27T00:18:05.475Z,9.1
2019-06-27T00:19:05.582Z,12.6
2019-06-27T00:22:05.914Z,9.2
2019-06-27T00:23:06.000Z,8.9
2019-06-27T00:24:06.033Z,7.9
2019-06-27T00:25:06.174Z,10.8
2019-06-27T00:26:06.200Z,11.1
2019-06-27T00:27:06.247Z,14.1
2019-06-27T00:28:06.328Z,11.5
2019-06-27T00:29:06.369Z,11.2
2019-06-27T00:32:06.644Z,10.9
2019-06-27T00:33:06.718Z,10.9
2019-06-27T00:34:06.808Z,11
2019-06-27T00:35:07.018Z,10.3
2019-06-27T00:36:07.082Z,10.2
2019-06-27T00:42:07.227Z,11.3
2019-06-27T00:43:07.257Z,10.9
2019-06-27T00:44:07.392Z,10.1
2019-06-27T00:45:07.480Z,11.2
2019-06-27T00:46:07.660Z,10.6
2019-06-27T00:47:07.596Z,11.1
2019-06-27T00:48:07.697Z,13.2
2019-06-27T00:49:07.790Z,12.7
2019-06-27T00:52:08.124Z,9.3
2019-06-27T00:53:08.208Z,11.8
2019-06-27T00:54:08.322Z,13.1
2019-06-27T00:55:08.391Z,13.7
2019-06-27T00:56:08.562Z,10.7
2019-06-27T00:57:13.786Z,11.4
2019-06-27T00:58:09.616Z,11.3
2019-06-27T00:59:08.650Z,11
2019-06-27T01:02:08.970Z,10.2
2019-06-27T01:03:09.037Z,11.2
2019-06-27T01:04:09.117Z,10.4
2019-06-27T01:05:09.222Z,10.8
2019-06-27T01:06:09.302Z,9.9
2019-06-27T01:27:10.899Z,11.4
2019-06-27T01:28:11.007Z,11.2
2019-06-27T01:29:11.110Z,11.8
2019-06-27T01:32:11.415Z,9.6
2019-06-27T01:33:11.502Z,11.1
2019-06-27T01:34:11.634Z,12.6
2019-06-27T01:35:11.688Z,11.2
2019-06-27T01:36:11.759Z,10.9
2019-06-27T01:37:11.857Z,11.1
2019-06-27T01:38:11.997Z,12.5
2019-06-27T01:39:12.088Z,12.4
2019-06-27T01:40:12.153Z,12.6
2019-06-27T01:41:12.255Z,12.2
2019-06-27T01:42:12.329Z,9.1
2019-06-27T01:43:12.369Z,10.6
2019-06-27T01:44:12.498Z,10.5
2019-06-27T01:45:12.566Z,10.6
2019-06-27T01:46:12.629Z,10.7
2019-06-27T01:47:12.714Z,11.1
2019-06-27T01:48:12.842Z,10.7
2019-06-27T01:49:12.899Z,11.1
2019-06-27T01:50:12.997Z,11.6
2019-06-27T01:51:13.081Z,11.3
2019-06-27T01:52:13.135Z,9.3
2019-06-27T01:53:13.264Z,10.5
2019-06-27T01:54:13.358Z,11.7
2019-06-27T01:55:13.443Z,13.1
2019-06-27T01:56:13.516Z,11.5
2019-06-27T01:57:13.537Z,13
2019-06-27T01:58:13.641Z,12.7
2019-06-27T01:59:13.650Z,11.5
2019-06-27T02:00:13.750Z,10.4
2019-06-27T02:01:13.838Z,12
2019-06-27T02:02:13.942Z,11.6
2019-06-27T02:03:14.035Z,13.9
2019-06-27T02:04:14.083Z,8.8
2019-06-27T02:05:14.181Z,11.7
2019-06-27T02:06:14.230Z,9.7
2019-06-27T02:07:14.330Z,12.3
2019-06-27T02:08:14.336Z,10.9
2019-06-27T02:12:14.648Z,11.4
2019-06-27T02:13:14.756Z,11.4
2019-06-27T02:14:14.889Z,11.5
2019-06-27T02:15:14.991Z,10.2
2019-06-27T02:16:15.097Z,11.8
2019-06-27T02:17:15.178Z,11.4
2019-06-27T02:18:15.269Z,12.2
2019-06-27T02:22:15.507Z,10.5
2019-06-27T02:23:16.072Z,8.6
2019-06-27T02:24:15.537Z,10.9
2019-06-27T02:25:15.500Z,10.4
2019-06-27T02:26:15.596Z,16
2019-06-27T02:27:15.687Z,13
2019-06-27T02:28:15.786Z,14.4
2019-06-27T02:32:16.179Z,11
2019-06-27T02:33:16.322Z,9.9
2019-06-27T02:34:16.382Z,10.1
2019-06-27T02:35:16.466Z,10
2019-06-27T02:36:16.554Z,11.7
2019-06-27T02:37:16.669Z,13.2
2019-06-27T02:38:16.760Z,12.9
2019-06-27T02:43:17.222Z,9.5
2019-06-27T02:44:17.337Z,11.6
2019-06-27T02:45:17.430Z,11.6
2019-06-27T02:46:17.529Z,9.4
2019-06-27T02:47:17.620Z,10
2019-06-27T02:48:17.751Z,10.4
2019-06-27T02:49:18.884Z,8.8
2019-06-27T02:50:18.001Z,10.4
2019-06-27T02:51:18.078Z,8.9
2019-06-27T02:52:18.232Z,9.7
2019-06-27T02:53:18.339Z,10.6
2019-06-27T02:54:18.488Z,10
2019-06-27T02:55:18.579Z,9.4
2019-06-27T02:56:18.687Z,7.8
2019-06-27T02:57:18.774Z,9
2019-06-27T02:58:30.397Z,11.9
2019-06-27T02:59:20.104Z,10.3
2019-06-27T03:00:19.054Z,10
2019-06-27T03:01:19.210Z,10.3
2019-06-27T03:02:19.295Z,10.5
2019-06-27T03:03:19.379Z,11
2019-06-27T03:04:19.507Z,13.6
2019-06-27T03:05:19.665Z,10.2
2019-06-27T03:06:19.621Z,9.8
2019-06-27T03:07:19.878Z,10
2019-06-27T03:08:19.797Z,11.1
2019-06-27T03:09:19.905Z,8.8
2019-06-27T03:10:20.058Z,10.5
2019-06-27T03:11:20.170Z,12.5
2019-06-27T03:12:20.271Z,9.5
2019-06-27T03:13:20.380Z,8.3
2019-06-27T03:14:20.480Z,8.4
2019-06-27T03:15:20.606Z,9.9
2019-06-27T03:16:20.733Z,10.1
2019-06-27T03:17:20.846Z,9.4
2019-06-27T03:18:20.949Z,10.7
2019-06-27T03:19:21.085Z,10
2019-06-27T03:20:21.175Z,8.9
2019-06-27T03:32:22.569Z,6.9
2019-06-27T03:33:22.716Z,10.5
2019-06-27T03:34:22.827Z,9.4
2019-06-27T03:35:22.954Z,10.7
2019-06-27T03:36:23.090Z,6.2
2019-06-27T03:37:23.194Z,9.3
2019-06-27T03:38:23.359Z,8
2019-06-27T03:39:23.299Z,8
2019-06-27T03:40:23.401Z,8.7
2019-06-27T03:41:23.509Z,11
2019-06-27T03:42:23.640Z,8.6
2019-06-27T03:43:23.713Z,8.6
2019-06-27T03:44:23.837Z,8.9
2019-06-27T03:45:23.842Z,8.6
2019-06-27T03:46:23.918Z,11.2
2019-06-27T03:47:24.064Z,9
2019-06-27T03:48:24.173Z,9.4
2019-06-27T03:49:24.149Z,10.1
2019-06-27T03:50:24.363Z,7.6
2019-06-27T03:51:24.353Z,9.8
2019-06-27T03:52:24.318Z,10.1
2019-06-27T03:53:24.341Z,7.4
2019-06-27T03:54:24.438Z,12.1
2019-06-27T03:55:24.514Z,6.6
2019-06-27T03:56:24.677Z,7.9
2019-06-27T03:57:24.628Z,8.4
2019-06-27T03:58:24.763Z,8.5
2019-06-27T03:59:24.841Z,9.6
2019-06-27T04:00:24.961Z,7.2
2019-06-27T04:01:25.094Z,8.5
2019-06-27T04:02:25.125Z,9.2
2019-06-27T04:03:25.224Z,9.8
2019-06-27T04:07:25.623Z,8.8
2019-06-27T04:08:25.583Z,9.2
2019-06-27T04:09:25.756Z,8.1
2019-06-27T04:37:27.154Z,9.8
2019-06-27T04:38:27.223Z,9.5
2019-06-27T04:39:27.257Z,9.4
2019-06-27T04:40:27.317Z,8.4
2019-06-27T04:41:27.378Z,10.9
2019-06-27T04:42:27.472Z,9.5
2019-06-27T04:50:27.858Z,8.5
2019-06-27T04:51:27.913Z,9.8
2019-06-27T04:52:27.935Z,8.5
2019-06-27T04:53:28.006Z,9
2019-06-27T04:54:28.037Z,9
2019-06-27T04:55:28.067Z,8.1
2019-06-27T04:56:28.109Z,9.6
2019-06-27T04:57:28.144Z,9.6
2019-06-27T04:58:28.212Z,9
2019-06-27T04:59:28.276Z,8.5
2019-06-27T05:00:28.336Z,8.8
2019-06-27T05:01:28.476Z,9.1
2019-06-27T05:02:30.654Z,12.2
2019-06-27T05:03:29.592Z,7.9
2019-06-27T05:04:28.648Z,8.3
2019-06-27T05:05:28.710Z,8.2
2019-06-27T05:06:28.787Z,8.3
2019-06-27T05:07:28.818Z,11
2019-06-27T05:08:28.907Z,9.6
2019-06-27T05:09:28.948Z,11.1
2019-06-27T05:10:28.991Z,10.9
2019-06-27T05:11:29.033Z,10.5
2019-06-27T05:12:29.055Z,8.9
2019-06-27T05:13:29.162Z,10.2
2019-06-27T05:14:32.365Z,10.2
2019-06-27T05:15:30.235Z,11
2019-06-27T05:16:29.294Z,11.7
2019-06-27T05:17:29.325Z,11.6
2019-06-27T05:18:29.377Z,9.7
2019-06-27T05:19:29.423Z,11.9
2019-06-27T05:20:29.466Z,9.9
2019-06-27T05:21:29.511Z,9.3
2019-06-27T05:22:29.564Z,9.2
2019-06-27T05:23:29.634Z,9.4
2019-06-27T05:24:29.730Z,12.1
2019-06-27T05:25:30.066Z,9.5
2019-06-27T05:26:29.818Z,11.4
2019-06-27T05:27:29.850Z,9.9
2019-06-27T05:28:29.890Z,8.4
2019-06-27T05:29:30.005Z,10
2019-06-27T05:30:30.070Z,11.1
2019-06-27T05:31:30.122Z,11.5
2019-06-27T05:32:30.198Z,9.5
2019-06-27T05:33:30.247Z,9.4
2019-06-27T05:34:30.354Z,11.4
2019-06-27T05:35:30.407Z,7.3
2019-06-27T05:36:30.441Z,9.4
2019-06-27T05:37:31.442Z,11
2019-06-27T05:38:30.546Z,9.5
2019-06-27T05:39:30.618Z,12
2019-06-27T05:40:30.633Z,13.1
2019-06-27T05:41:30.674Z,10.3
2019-06-27T05:42:30.852Z,10.4
2019-06-27T05:43:30.723Z,9.8
2019-06-27T05:44:31.775Z,10.8
2019-06-27T05:45:30.815Z,6.9
2019-06-27T05:46:30.854Z,9.3
2019-06-27T05:47:30.911Z,11.3
2019-06-27T05:48:30.904Z,9.8
2019-06-27T05:49:30.974Z,12.8
2019-06-27T05:50:30.995Z,10.6
2019-06-27T05:51:31.022Z,10.4
2019-06-27T05:52:31.074Z,10.2
2019-06-27T05:53:31.080Z,8.9
2019-06-27T05:54:31.139Z,12.2
2019-06-27T05:55:31.182Z,8
2019-06-27T05:56:31.212Z,10.2
2019-06-27T05:57:31.245Z,12
2019-06-27T05:58:31.297Z,8.6
2019-06-27T05:59:31.357Z,10.5
2019-06-27T06:00:31.328Z,8.1
2019-06-27T06:01:31.526Z,11.1
2019-06-27T06:24:32.694Z,11.4
2019-06-27T06:25:32.772Z,9.8
2019-06-27T06:26:32.824Z,8.3
2019-06-27T06:27:32.787Z,9.4
2019-06-27T06:28:32.815Z,9.5
2019-06-27T06:29:32.817Z,13.2
2019-06-27T06:30:43.616Z,9
2019-06-27T06:33:32.989Z,12.2
2019-06-27T06:34:32.980Z,10.5
2019-06-27T06:46:33.536Z,11
2019-06-27T06:47:33.562Z,12.5
2019-06-27T06:48:33.616Z,10.9
2019-06-27T06:57:34.003Z,9.5
2019-06-27T06:58:34.042Z,8.6
2019-06-27T06:59:34.070Z,9.4
2019-06-27T07:00:34.090Z,9.8
2019-06-27T07:01:34.248Z,10.7
2019-06-27T07:02:34.135Z,11.3
2019-06-27T07:03:34.170Z,9.6
2019-06-27T07:04:34.192Z,10.5
2019-06-27T07:05:34.215Z,10.2
2019-06-27T07:06:34.227Z,10.3
2019-06-27T07:07:34.324Z,9.8
2019-06-27T07:08:34.344Z,11.6
2019-06-27T07:09:34.366Z,12.8
2019-06-27T07:10:34.380Z,10.5
2019-06-27T07:11:34.419Z,11.2
2019-06-27T07:12:34.483Z,11.7
2019-06-27T07:13:34.526Z,13.6
2019-06-27T07:14:34.559Z,8.9
2019-06-27T07:15:34.618Z,8.4
2019-06-27T07:16:34.735Z,11.9
2019-06-27T07:17:34.807Z,9.1
2019-06-27T07:18:34.864Z,10.4
2019-06-27T07:19:34.911Z,10
2019-06-27T07:20:34.941Z,10.5
2019-06-27T07:21:35.029Z,10.7
2019-06-27T07:22:35.158Z,12
2019-06-27T07:23:35.169Z,10.8
2019-06-27T07:24:35.207Z,12
2019-06-27T07:25:35.235Z,15.7
2019-06-27T07:26:35.295Z,11.2
2019-06-27T07:27:35.429Z,10
2019-06-27T07:28:35.509Z,12.9
2019-06-27T07:29:35.613Z,9.3
2019-06-27T07:30:35.712Z,10.6
2019-06-27T07:46:36.668Z,10.5
2019-06-27T07:47:36.724Z,10.2
2019-06-27T07:48:36.758Z,10.4
2019-06-27T07:49:36.786Z,9.9
2019-06-27T07:50:36.799Z,9.3
2019-06-27T07:51:36.874Z,10.1
2019-06-27T07:52:36.937Z,9.7
2019-06-27T07:53:36.974Z,9.5
2019-06-27T07:54:37.045Z,10
2019-06-27T07:55:37.119Z,8.2
2019-06-27T07:56:37.175Z,11.3
2019-06-27T07:57:38.236Z,9.9
2019-06-27T07:58:37.285Z,7.6
2019-06-27T07:59:37.400Z,9.6
2019-06-27T08:00:37.463Z,9.2
2019-06-27T08:01:37.506Z,10.6
2019-06-27T08:02:37.615Z,10.6
2019-06-27T08:03:37.673Z,9.8
2019-06-27T08:04:37.703Z,9.3
2019-06-27T08:05:37.777Z,11.5
2019-06-27T08:06:37.879Z,10.2
2019-06-27T08:07:37.963Z,8.7
2019-06-27T08:08:37.976Z,7.6
2019-06-27T08:09:38.035Z,8.6
2019-06-27T08:10:38.075Z,10.1
2019-06-27T08:11:38.166Z,9.2
2019-06-27T08:12:41.992Z,9
2019-06-27T08:13:39.248Z,7.8
2019-06-27T08:14:38.282Z,8.1
2019-06-27T08:15:38.324Z,6.4
2019-06-27T08:16:38.486Z,10.3
2019-06-27T08:17:38.364Z,6.9
2019-06-27T08:18:38.424Z,10.9
2019-06-27T08:25:39.594Z,9
2019-06-27T08:26:38.626Z,8.5
2019-06-27T08:27:38.662Z,7.1
2019-06-27T08:28:38.735Z,10.5
2019-06-27T08:29:38.782Z,8.3
2019-06-27T08:30:38.801Z,9.8
2019-06-27T08:31:50.791Z,9.1
2019-06-27T08:32:39.862Z,9.4
2019-06-27T08:33:38.886Z,8.2
2019-06-27T08:34:38.911Z,10.1
2019-06-27T08:35:38.912Z,9
2019-06-27T08:36:39.043Z,10.5
2019-06-27T08:37:39.016Z,9.5
2019-06-27T08:38:39.088Z,13
2019-06-27T08:39:39.098Z,11
2019-06-27T08:40:39.152Z,10.6
2019-06-27T08:41:39.221Z,10.4
2019-06-27T08:42:39.240Z,9.9
2019-06-27T08:43:39.299Z,9.4
2019-06-27T08:44:39.369Z,11.3
2019-06-27T08:45:39.400Z,11.8
2019-06-27T08:46:39.388Z,12.4
2019-06-27T08:47:39.454Z,13
2019-06-27T08:48:39.534Z,12.2
2019-06-27T08:49:39.595Z,12.7
2019-06-27T08:50:39.719Z,10.3
2019-06-27T08:51:39.829Z,11.6
2019-06-27T08:52:39.864Z,10.4
2019-06-27T08:53:39.940Z,10.3
2019-06-27T08:54:40.060Z,11.7
2019-06-27T08:55:40.151Z,12
2019-06-27T08:56:40.187Z,11.8
2019-06-27T08:57:40.265Z,9.6
2019-06-27T08:58:40.389Z,9.9
2019-06-27T08:59:40.545Z,10.1
2019-06-27T09:00:40.656Z,8.7
2019-06-27T09:01:40.718Z,9.3
2019-06-27T09:02:40.790Z,8.6
2019-06-27T09:03:40.761Z,10.6
2019-06-27T09:04:40.825Z,8.8
2019-06-27T09:05:41.012Z,10
2019-06-27T09:06:40.970Z,10.6
2019-06-27T09:07:40.996Z,8.8
2019-06-27T09:08:41.032Z,9.3
2019-06-27T09:09:41.101Z,8.4
2019-06-27T09:10:41.101Z,8.5
2019-06-27T09:11:41.188Z,9.9
2019-06-27T09:12:41.251Z,13.2
2019-06-27T09:13:41.267Z,11
2019-06-27T09:14:41.356Z,8.9
2019-06-27T09:15:41.372Z,10.5
2019-06-27T09:16:41.387Z,9.1
2019-06-27T09:17:41.410Z,9
2019-06-27T09:18:41.422Z,11.8
2019-06-27T09:19:41.451Z,7.9
2019-06-27T09:20:41.480Z,9.7
2019-06-27T09:21:41.528Z,9.9
2019-06-27T09:22:41.554Z,8.6
2019-06-27T09:23:41.567Z,16.700001
2019-06-27T09:24:41.619Z,11.2
2019-06-27T09:25:41.681Z,10.6
2019-06-27T09:26:41.717Z,9.7
2019-06-27T09:27:41.748Z,9.5
2019-06-27T09:28:41.831Z,7
2019-06-27T09:29:41.905Z,8.7
2019-06-27T09:30:41.927Z,8.8
2019-06-27T09:31:41.954Z,7.5
2019-06-27T09:32:42.994Z,10.5
2019-06-27T09:33:42.014Z,9.2
2019-06-27T09:34:42.079Z,9.7
2019-06-27T09:35:42.163Z,8.4
2019-06-27T09:36:42.216Z,8.8
2019-06-27T09:37:42.247Z,8.6
2019-06-27T09:38:42.282Z,6.4
2019-06-27T09:39:42.364Z,9.5
2019-06-27T09:40:42.493Z,7.7
2019-06-27T09:41:42.490Z,9.8
2019-06-27T09:42:42.511Z,8.1
2019-06-27T09:43:42.525Z,8.4
2019-06-27T09:44:42.517Z,9
2019-06-27T09:45:42.593Z,7.7
2019-06-27T09:46:42.641Z,6.6
2019-06-27T09:47:42.679Z,7.7
2019-06-27T09:48:42.683Z,8.6
2019-06-27T09:49:42.708Z,8.8
2019-06-27T09:50:42.734Z,7.5
2019-06-27T09:51:42.771Z,8.1
2019-06-27T09:52:42.796Z,8.2
2019-06-27T09:53:42.818Z,9.5
2019-06-27T09:54:42.849Z,8.6
2019-06-27T09:55:43.010Z,10.6
2019-06-27T09:56:42.893Z,11.2
2019-06-27T09:57:42.925Z,9.8
2019-06-27T09:58:42.979Z,10.7
2019-06-27T09:59:42.998Z,10.3
2019-06-27T10:00:43.066Z,7.7
2019-06-27T10:01:43.071Z,11.1
2019-06-27T10:06:43.548Z,9.5
2019-06-27T10:07:43.581Z,8.9
2019-06-27T10:08:43.595Z,9.6
2019-06-27T10:09:43.651Z,9.5
2019-06-27T10:10:43.725Z,9.1
2019-06-27T10:11:43.773Z,9.6
2019-06-27T10:12:43.752Z,9.1
2019-06-27T10:13:44.022Z,9.6
2019-06-27T10:14:44.030Z,9.7
2019-06-27T10:15:44.078Z,8.3
2019-06-27T10:16:44.119Z,10.4
2019-06-27T10:17:44.121Z,9.4
2019-06-27T10:18:44.115Z,10.7
2019-06-27T10:19:44.150Z,9.9
2019-06-27T10:20:44.168Z,9.4
2019-06-27T10:21:44.225Z,7.6
2019-06-27T10:22:44.242Z,10.6
2019-06-27T10:23:44.257Z,10.4
2019-06-27T10:24:44.285Z,10.5
2019-06-27T10:25:44.324Z,11.8
2019-06-27T10:26:44.379Z,11.5
2019-06-27T10:27:44.404Z,7.6
2019-06-27T10:28:44.462Z,9
2019-06-27T10:29:44.503Z,9.6
2019-06-27T10:30:44.581Z,6.6
2019-06-27T10:31:44.587Z,9.3
2019-06-27T10:32:58.096Z,8.1
2019-06-27T10:33:45.645Z,9.4
2019-06-27T10:34:44.685Z,6.3
2019-06-27T10:35:44.711Z,9.2
2019-06-27T10:36:44.777Z,6.7
2019-06-27T10:37:44.795Z,10
2019-06-27T10:38:44.822Z,8.4
2019-06-27T10:39:44.857Z,6.4
2019-06-27T10:40:44.910Z,6.9
2019-06-27T10:41:45.033Z,5.8
2019-06-27T10:42:45.072Z,6.5
2019-06-27T10:43:45.171Z,7.5
2019-06-27T10:44:45.222Z,8.8
2019-06-27T10:45:45.267Z,9.1
2019-06-27T10:46:45.288Z,7.3
2019-06-27T10:47:45.391Z,6.6
2019-06-27T10:48:45.441Z,8.2
2019-06-27T10:49:45.490Z,6.9
2019-06-27T10:50:46.551Z,7.6
2019-06-27T10:51:46.535Z,7.4
2019-06-27T10:52:45.584Z,8.9
2019-06-27T10:53:45.621Z,7.9
2019-06-27T10:54:45.651Z,6.2
2019-06-27T10:55:45.676Z,6.9
2019-06-27T10:56:45.675Z,9.1
2019-06-27T10:57:45.746Z,8.3
2019-06-27T10:58:45.801Z,8.7
2019-06-27T10:59:45.812Z,6.1
2019-06-27T11:00:45.845Z,6.6
2019-06-27T11:01:45.850Z,5.9
2019-06-27T11:02:45.913Z,6.7
2019-06-27T11:03:45.928Z,7.6
2019-06-27T11:04:45.992Z,7.3
2019-06-27T11:05:46.028Z,7.3
2019-06-27T11:06:46.051Z,7.7
2019-06-27T11:07:46.128Z,8
2019-06-27T11:08:46.197Z,7.1
2019-06-27T11:09:46.263Z,7.1
2019-06-27T11:10:46.317Z,10.1
2019-06-27T11:11:46.373Z,6.9
2019-06-27T11:12:46.441Z,7.4
2019-06-27T11:13:58.158Z,7.6
2019-06-27T11:14:58.497Z,7.2
2019-06-27T11:15:49.337Z,8
2019-06-27T11:16:47.547Z,8.6
2019-06-27T11:17:46.611Z,8.1
2019-06-27T11:18:46.642Z,6.8
2019-06-27T11:19:52.180Z,8.3
2019-06-27T11:20:47.837Z,6.8
2019-06-27T11:21:46.838Z,6.9
2019-06-27T11:22:47.887Z,6.8
2019-06-27T11:23:46.917Z,7.2
2019-06-27T11:24:46.949Z,9.2
2019-06-27T11:25:46.968Z,7.1
2019-06-27T11:26:47.003Z,8.2
2019-06-27T11:27:47.057Z,5.8
2019-06-27T11:28:47.115Z,7.6
2019-06-27T11:29:47.174Z,6.4
2019-06-27T11:30:47.209Z,7.1
2019-06-27T11:48:48.152Z,7.9
2019-06-27T11:49:48.189Z,7
2019-06-27T11:50:48.218Z,6
2019-06-27T11:51:48.246Z,8.1
2019-06-27T11:52:48.276Z,5.8
2019-06-27T11:55:48.481Z,7.8
2019-06-27T11:56:48.518Z,8.4
2019-06-27T11:57:48.556Z,8.6
2019-06-27T11:58:48.679Z,8.1
2019-06-27T11:59:48.731Z,8.3
2019-06-27T12:04:48.923Z,6.8
2019-06-27T12:05:48.967Z,7.9
2019-06-27T12:06:48.999Z,6.5
2019-06-27T12:07:49.020Z,8.7
2019-06-27T12:08:49.070Z,6.6
2019-06-27T12:09:49.171Z,8.1
2019-06-27T12:10:49.207Z,7.8
2019-06-27T12:11:49.262Z,9
2019-06-27T12:12:49.285Z,6.9
2019-06-27T12:13:49.347Z,7.2
2019-06-27T12:14:49.408Z,6.7
2019-06-27T12:15:51.624Z,10.1
2019-06-27T12:16:50.454Z,7.6
2019-06-27T12:17:49.487Z,6.1
2019-06-27T12:18:49.526Z,8
2019-06-27T12:19:49.599Z,8.7
2019-06-27T12:20:49.650Z,9.8
2019-06-27T12:21:49.672Z,10.8
2019-06-27T12:22:49.750Z,9.9
2019-06-27T12:23:49.778Z,8
2019-06-27T12:24:49.905Z,6.6
2019-06-27T12:25:49.978Z,7.4
2019-06-27T12:26:50.000Z,8.7
2019-06-27T12:27:50.029Z,6.4
2019-06-27T12:28:50.055Z,8.4
2019-06-27T12:29:50.181Z,7.9
2019-06-27T12:30:50.271Z,7.4
2019-06-27T12:31:51.652Z,8.2
2019-06-27T12:32:52.873Z,9.9
2019-06-27T12:34:50.506Z,7.9
2019-06-27T12:35:50.586Z,8.5
2019-06-27T12:36:50.591Z,8
2019-06-27T12:37:50.607Z,7.6
2019-06-27T12:38:50.693Z,7.8
2019-06-27T12:39:51.744Z,9.7
2019-06-27T12:40:50.789Z,7.2
2019-06-27T12:41:50.826Z,6.9
2019-06-27T12:42:50.871Z,9
2019-06-27T12:43:50.938Z,7.7
2019-06-27T12:44:51.034Z,8
2019-06-27T12:45:51.119Z,8.7
2019-06-27T12:46:51.147Z,8.4
2019-06-27T12:47:51.178Z,6.3
2019-06-27T12:48:51.240Z,6.1
2019-06-27T12:50:01.950Z,7.7
2019-06-27T12:50:52.454Z,9.4
2019-06-27T12:51:51.489Z,8
2019-06-27T12:52:51.513Z,8.6
2019-06-27T12:53:54.641Z,8.6
2019-06-27T12:54:52.610Z,7.2
2019-06-27T12:55:51.675Z,7.6
2019-06-27T12:56:51.743Z,9.2
2019-06-27T12:57:51.773Z,7.6
2019-06-27T12:58:51.805Z,10
2019-06-27T12:59:51.845Z,6.8
2019-06-27T13:00:51.939Z,9
2019-06-27T13:01:51.973Z,7.7
2019-06-27T13:02:52.023Z,8.2
2019-06-27T13:03:52.080Z,8.4
2019-06-27T13:04:52.136Z,7.5
2019-06-27T13:05:52.174Z,6.7
2019-06-27T13:06:52.243Z,7.4
2019-06-27T13:07:52.284Z,7.4
2019-06-27T13:08:52.300Z,7.1
2019-06-27T13:18:52.709Z,7.3
2019-06-27T13:25:53.059Z,8
2019-06-27T13:26:53.121Z,7.8
2019-06-27T13:27:53.144Z,7.2
2019-06-27T13:28:53.188Z,5.1
2019-06-27T13:29:53.190Z,6
2019-06-27T13:30:53.232Z,6
2019-06-27T13:31:53.286Z,7.2
2019-06-27T13:32:53.310Z,7
2019-06-27T13:33:53.334Z,6
2019-06-27T13:34:53.411Z,8.4
2019-06-27T13:35:53.436Z,6.3
2019-06-27T13:36:53.497Z,7.6
2019-06-27T13:37:53.542Z,4.6
2019-06-27T13:38:53.589Z,6.8
2019-06-27T13:39:53.601Z,5.8
2019-06-27T13:40:53.653Z,7.3
2019-06-27T13:41:53.729Z,7
2019-06-27T13:49:54.173Z,5.8
2019-06-27T13:50:57.441Z,6
2019-06-27T13:51:55.210Z,6.1
2019-06-27T13:52:54.810Z,7.9
2019-06-27T13:53:54.329Z,7.5
2019-06-27T13:54:54.360Z,5.8
2019-06-27T13:55:54.401Z,5.8
2019-06-27T13:56:54.464Z,5.7
2019-06-27T13:57:57.443Z,6.2
2019-06-27T13:58:55.551Z,6.5
2019-06-27T13:59:54.569Z,4.9
2019-06-27T14:00:54.612Z,6.1
2019-06-27T14:01:54.657Z,5.6
2019-06-27T14:02:54.695Z,6.8
2019-06-27T14:03:54.691Z,7.4
2019-06-27T14:04:57.352Z,7.6
2019-06-27T14:05:55.855Z,6.2
2019-06-27T14:06:54.882Z,6.2
2019-06-27T14:07:54.951Z,6.9
2019-06-27T14:08:54.989Z,5.6
2019-06-27T14:09:57.210Z,5.8
2019-06-27T14:10:56.161Z,6.5
2019-06-27T14:11:55.168Z,6
2019-06-27T14:12:55.273Z,7.9
2019-06-27T14:13:55.277Z,7.5
2019-06-27T14:14:59.576Z,5.9
2019-06-27T14:15:56.458Z,6.3
2019-06-27T14:16:55.493Z,6.8
2019-06-27T14:17:55.580Z,5.9
2019-06-27T14:18:55.647Z,7.3
2019-06-27T14:19:55.686Z,6.5
2019-06-27T14:20:55.754Z,6.5
2019-06-27T14:35:10.607Z,5.2
2019-06-27T14:35:57.598Z,6.5
2019-06-27T14:36:56.592Z,5.6
2019-06-27T14:37:56.674Z,5.1
2019-06-27T15:39:59.873Z,5.1
2019-06-27T15:43:00.035Z,6
2019-06-27T15:44:00.068Z,6.6
2019-06-27T15:45:00.092Z,5.4
2019-06-27T15:46:00.149Z,5.3
2019-06-27T15:47:00.185Z,5.8
2019-06-27T15:48:00.248Z,5.6
2019-06-27T15:49:01.263Z,5.5
2019-06-27T15:50:00.307Z,7.5
2019-06-27T15:51:00.502Z,7.9
2019-06-27T15:52:00.362Z,5.7
2019-06-27T15:53:00.428Z,5.9
2019-06-27T15:54:00.498Z,6.8
2019-06-27T15:55:00.507Z,5.8
2019-06-27T15:56:00.541Z,6.9
2019-06-27T15:57:00.594Z,6.7
2019-06-27T15:58:00.613Z,6.8
2019-06-27T15:59:03.517Z,6
2019-06-27T16:00:01.928Z,7.9
2019-06-27T16:01:00.877Z,6.2
2019-06-27T16:02:00.957Z,8.3
2019-06-27T16:03:01.025Z,7.6
2019-06-27T16:04:01.074Z,7.8
2019-06-27T16:05:01.111Z,6.6
2019-06-27T16:06:08.977Z,4.6
2019-06-27T16:07:02.189Z,6
2019-06-27T16:08:01.214Z,7.1
2019-06-27T16:09:01.257Z,6.2
2019-06-27T16:10:01.256Z,6
2019-06-27T16:11:01.425Z,6
2019-06-27T16:12:01.431Z,5.6
2019-06-27T16:13:02.762Z,6.8
2019-06-27T16:14:02.491Z,4.4
2019-06-27T16:15:01.541Z,5.6
2019-06-27T16:16:01.557Z,6.3
2019-06-27T16:17:01.630Z,7.2
2019-06-27T16:18:01.651Z,7.5
2019-06-27T16:19:01.679Z,6.2
2019-06-27T16:20:01.724Z,6.1
2019-06-27T16:21:01.841Z,4
2019-06-27T16:22:01.795Z,4.8
2019-06-27T16:23:01.868Z,4.8
2019-06-27T16:24:01.916Z,7.3
2019-06-27T16:25:02.172Z,6.1
2019-06-27T16:26:01.986Z,5.9
2019-06-27T16:27:02.102Z,6
2019-06-27T16:28:02.118Z,5
2019-06-27T16:29:02.136Z,4.3
2019-06-27T16:30:02.182Z,5.2
2019-06-27T16:31:02.254Z,5.6
2019-06-27T16:32:02.368Z,5.6
2019-06-27T16:33:02.456Z,4.9
2019-06-27T16:34:02.481Z,5.5
2019-06-27T16:35:02.485Z,5.9
2019-06-27T16:36:02.557Z,5.5
2019-06-27T16:37:02.654Z,4.9
2019-06-27T16:38:02.729Z,3.7
2019-06-27T16:39:02.793Z,5.6
2019-06-27T16:40:02.832Z,6.2
2019-06-27T16:41:02.877Z,6.4
2019-06-27T16:42:02.941Z,3.9
2019-06-27T16:43:02.971Z,5.9
2019-06-27T16:44:03.027Z,5.4
2019-06-27T16:45:03.078Z,6.5
2019-06-27T16:46:03.122Z,6
2019-06-27T16:47:03.171Z,5.1
2019-06-27T16:48:03.200Z,4.9
2019-06-27T16:49:03.226Z,3.5
2019-06-27T16:50:03.239Z,5.4
2019-06-27T16:51:03.275Z,3.3
2019-06-27T16:52:03.467Z,4.3
2019-06-27T16:53:03.365Z,6.9
2019-06-27T16:54:04.436Z,4.5
2019-06-27T16:55:03.461Z,4.6
2019-06-27T16:56:03.504Z,5.7
2019-06-27T16:57:03.753Z,7.4
2019-06-27T16:58:03.639Z,4.3
2019-06-27T16:59:03.702Z,5
2019-06-27T17:00:03.770Z,5.3
2019-06-27T17:01:03.788Z,4.3
2019-06-27T17:02:06.056Z,5.2
2019-06-27T17:03:04.936Z,4.9
2019-06-27T17:04:03.993Z,2.8
2019-06-27T17:05:04.056Z,5
2019-06-27T17:06:04.094Z,4.3
2019-06-27T17:07:04.109Z,3.9
2019-06-27T17:08:04.190Z,4
2019-06-27T17:09:04.324Z,4.2
2019-06-27T17:10:04.259Z,5.8
2019-06-27T17:11:04.278Z,4.2
2019-06-27T17:12:04.335Z,5.5
2019-06-27T17:13:04.408Z,3
2019-06-27T17:14:04.438Z,2.9
2019-06-27T17:15:04.479Z,4.9
2019-06-27T17:16:04.492Z,5.2
2019-06-27T17:17:04.546Z,2.9
2019-06-27T17:18:04.639Z,5.4
2019-06-27T17:19:04.718Z,4.3
2019-06-27T17:20:04.739Z,5.3
2019-06-27T17:21:04.792Z,3.7
2019-06-27T17:22:04.809Z,3.9
2019-06-27T17:23:05.585Z,6.1
2019-06-27T17:24:04.947Z,3.8
2019-06-27T17:25:04.988Z,4.1
2019-06-27T17:26:11.092Z,5.8
2019-06-27T17:27:06.091Z,4.8
2019-06-27T17:28:05.138Z,4.7
2019-06-27T17:29:05.222Z,4.5
2019-06-27T17:30:05.253Z,5.2
2019-06-27T17:31:05.262Z,3.6
2019-06-27T17:32:06.439Z,7.6
2019-06-27T17:33:06.338Z,4.9
2019-06-27T17:34:05.361Z,3.2
2019-06-27T17:35:05.402Z,5.6
2019-06-27T17:36:05.429Z,5.8
2019-06-27T17:37:05.436Z,4.7
2019-06-27T17:38:05.512Z,5.9
2019-06-27T17:39:05.560Z,5.6
2019-06-27T17:40:05.594Z,5.1
2019-06-27T17:41:05.637Z,3.2
2019-06-27T17:42:05.651Z,4
2019-06-27T17:43:05.717Z,5.5
2019-06-27T17:44:05.793Z,4.3
2019-06-27T17:45:05.855Z,5.8
2019-06-27T17:46:05.869Z,4.2
2019-06-27T17:47:05.889Z,4.3
2019-06-27T17:48:05.927Z,5
2019-06-27T17:49:05.986Z,3.4
2019-06-27T17:50:06.025Z,7.1
2019-06-27T17:51:07.932Z,5.4
2019-06-27T17:52:07.112Z,6.6
2019-06-27T17:53:06.154Z,3.4
2019-06-27T17:54:06.235Z,6.3
2019-06-27T17:55:06.273Z,3.8
2019-06-27T17:56:06.302Z,4.4
2019-06-27T17:57:06.389Z,4.8
2019-06-27T17:58:06.419Z,6.9
2019-06-27T17:59:06.488Z,4.5
2019-06-27T18:00:06.553Z,4.9
2019-06-27T18:01:06.584Z,5.3
2019-06-27T18:02:06.654Z,5.2
2019-06-27T18:03:06.692Z,4
2019-06-27T18:04:06.807Z,7.2
2019-06-27T18:05:06.859Z,7.2
2019-06-27T18:06:06.867Z,5.7
2019-06-27T18:07:13.892Z,4.6
2019-06-27T18:08:07.892Z,5.7
2019-06-27T18:09:06.961Z,5.7
2019-06-27T18:10:06.999Z,6
2019-06-27T18:11:07.045Z,4.8
2019-06-27T18:12:07.080Z,6.1
2019-06-27T18:13:07.121Z,4
2019-06-27T18:14:07.147Z,6.4
2019-06-27T18:15:07.235Z,8.2
2019-06-27T18:16:07.290Z,5.6
2019-06-27T18:17:07.337Z,4.5
2019-06-27T18:18:07.359Z,5.3
2019-06-27T18:19:07.366Z,4.5
2019-06-27T18:20:07.419Z,5.8
2019-06-27T18:21:07.468Z,4.8
2019-06-27T18:22:07.521Z,6.4
2019-06-27T18:23:07.601Z,7.4
2019-06-27T18:24:07.625Z,5.6
2019-06-27T18:25:07.690Z,4.2
2019-06-27T18:26:07.735Z,3.9
2019-06-27T18:27:07.834Z,5.6
2019-06-27T18:28:07.887Z,4.3
2019-06-27T18:29:07.951Z,7.7
2019-06-27T18:30:08.138Z,5.5
2019-06-27T18:31:08.044Z,4.4
2019-06-27T18:32:08.149Z,6.2
2019-06-27T18:33:08.176Z,4.6
2019-06-27T18:34:08.361Z,5
2019-06-27T18:35:08.358Z,3.6
2019-06-27T18:36:08.351Z,3.4
2019-06-27T18:37:08.423Z,3.5
2019-06-27T18:38:08.503Z,4.1
2019-06-27T18:39:08.528Z,5.5
2019-06-27T18:40:08.626Z,4.3